Providence, Rhode Island
Traffic Map
Current Weather Conditions
Providence, Rhode Island
Clear
Clear
72°
Feels Like: 72°
Wind Chill: 72° Ceiling: Unl
Heat Index: 72° Visibility: 10mi
Dew Point: 64° Wind: 6mph
Humidity: 76% Direction: 300° (WNW)
Pressure: 29.9in Gusts: 0mph
Raw Report DataKPVD 050351Z 30005KT 10SM CLR 22/18 A2990 RMK AO2 SLP123 T02220178
Traffic Incident Summary
Active as of:
Severity:
Category:
InformationThere was an issue retrieving the traffic information for this location. Please try a different location or try again shortly.
Advertisements
Track Severe Weather on mobile